createdAt,value
2018-03-17T00:01:55.073Z,4.83
2018-03-17T00:03:58.410Z,4.80
2018-03-17T00:06:00.986Z,4.63
2018-03-17T00:08:03.587Z,4.77
2018-03-17T00:10:06.187Z,4.70
2018-03-17T00:12:09.621Z,3.70
2018-03-17T00:14:12.213Z,4.40
2018-03-17T00:16:14.803Z,4.83
2018-03-17T00:18:17.403Z,4.37
2018-03-17T00:20:20.769Z,4.60
2018-03-17T00:22:23.378Z,4.70
2018-03-17T00:24:26.752Z,3.83
2018-03-17T00:26:29.352Z,4.53
2018-03-17T00:28:32.759Z,2.90
2018-03-17T00:30:35.351Z,3.13
2018-03-17T00:32:37.965Z,2.83
2018-03-17T00:34:40.545Z,3.07
2018-03-17T00:36:43.257Z,2.80
2018-03-17T00:38:45.837Z,3.40
2018-03-17T00:40:48.414Z,5.03
2018-03-17T00:42:51.039Z,5.40
2018-03-17T00:44:53.622Z,4.60
2018-03-17T00:46:56.218Z,4.40
2018-03-17T00:48:58.809Z,4.17
2018-03-17T00:51:01.523Z,5.00
2018-03-17T00:53:04.131Z,4.90
2018-03-17T00:55:07.486Z,4.53
2018-03-17T00:57:10.077Z,5.13
2018-03-17T00:59:12.706Z,4.73
2018-03-17T01:01:15.306Z,4.50
2018-03-17T01:03:18.673Z,5.77
2018-03-17T01:05:21.249Z,4.73
2018-03-17T01:07:23.859Z,5.03
2018-03-17T01:09:26.463Z,5.90
2018-03-17T01:11:29.856Z,5.67
2018-03-17T01:13:32.453Z,5.43
2018-03-17T01:15:35.099Z,4.93
2018-03-17T01:17:38.465Z,6.13
2018-03-17T01:19:41.086Z,5.73
2018-03-17T01:21:43.675Z,5.47
2018-03-17T01:23:46.305Z,5.23
2018-03-17T01:25:48.897Z,4.20
2018-03-17T01:27:52.277Z,4.47
2018-03-17T01:29:54.875Z,4.40
2018-03-17T01:31:58.341Z,3.57
2018-03-17T01:34:00.914Z,3.40
2018-03-17T01:36:03.513Z,3.27
2018-03-17T01:38:06.866Z,3.80
2018-03-17T01:40:09.497Z,5.20
2018-03-17T01:42:12.091Z,5.20
2018-03-17T01:44:14.680Z,4.97
2018-03-17T01:46:17.380Z,5.70
2018-03-17T01:48:19.987Z,4.97
2018-03-17T01:50:22.602Z,5.20
2018-03-17T01:52:25.190Z,5.10
2018-03-17T01:54:32.278Z,4.63
2018-03-17T01:56:35.036Z,4.40
2018-03-17T01:58:37.614Z,4.60
2018-03-17T02:00:40.198Z,4.77
2018-03-17T02:02:42.809Z,4.60
2018-03-17T02:04:45.493Z,4.47
2018-03-17T02:06:49.631Z,4.00
2018-03-17T02:08:52.226Z,5.03
2018-03-17T02:10:54.817Z,4.60
2018-03-17T02:12:58.177Z,4.50
2018-03-17T02:15:00.770Z,4.60
2018-03-17T02:17:03.643Z,5.10
2018-03-17T02:19:06.242Z,4.97
2018-03-17T02:21:08.852Z,4.00
2018-03-17T02:23:11.453Z,5.63
2018-03-17T02:25:14.030Z,4.77
2018-03-17T02:27:16.622Z,4.67
2018-03-17T02:29:19.199Z,4.40
2018-03-17T02:31:21.862Z,4.37
2018-03-17T02:33:25.208Z,4.97
2018-03-17T02:35:27.880Z,4.87
2018-03-17T02:37:30.473Z,4.07
2018-03-17T02:39:33.111Z,4.47
2018-03-17T02:41:36.500Z,4.60
2018-03-17T02:43:39.854Z,4.43
2018-03-17T02:45:42.437Z,4.07
2018-03-17T02:47:45.058Z,4.20
2018-03-17T02:49:47.651Z,4.23
2018-03-17T02:51:50.238Z,4.23
2018-03-17T02:53:52.958Z,4.40
2018-03-17T02:55:55.534Z,4.10
2018-03-17T02:57:58.125Z,5.10
2018-03-17T03:00:00.746Z,4.33
2018-03-17T03:02:03.331Z,4.33
2018-03-17T03:04:05.908Z,4.53
2018-03-17T03:06:08.504Z,4.73
2018-03-17T03:08:11.863Z,4.10
2018-03-17T03:10:14.461Z,4.80
2018-03-17T03:12:17.091Z,4.07
2018-03-17T03:14:19.696Z,4.50
2018-03-17T03:16:22.315Z,4.13
2018-03-17T03:18:25.672Z,4.33
2018-03-17T03:20:28.284Z,4.50
2018-03-17T03:22:30.889Z,4.60
2018-03-17T03:24:33.969Z,4.83
2018-03-17T03:26:36.573Z,5.00
2018-03-17T03:28:39.941Z,4.97
2018-03-17T03:30:42.563Z,4.70
2018-03-17T03:32:45.910Z,4.50
2018-03-17T03:34:48.505Z,5.20
2018-03-17T03:36:51.095Z,4.53
2018-03-17T03:38:53.706Z,4.63
2018-03-17T03:40:56.402Z,4.33
2018-03-17T03:42:59.000Z,4.90
2018-03-17T03:45:01.590Z,4.87
2018-03-17T03:47:04.726Z,4.70
2018-03-17T03:49:07.314Z,4.20
2018-03-17T03:51:09.918Z,4.47
2018-03-17T03:53:12.522Z,4.10
2018-03-17T03:55:15.865Z,4.10
2018-03-17T03:57:19.576Z,4.70
2018-03-17T03:59:22.627Z,4.97
2018-03-17T04:01:25.206Z,4.60
2018-03-17T04:03:27.825Z,4.97
2018-03-17T04:05:30.439Z,4.73
2018-03-17T04:07:33.022Z,5.70
2018-03-17T04:09:35.632Z,5.80
2018-03-17T04:11:38.251Z,5.57
2018-03-17T04:13:41.641Z,5.00
2018-03-17T04:15:45.010Z,5.50
2018-03-17T04:17:47.619Z,5.10
2018-03-17T04:19:50.221Z,5.00
2018-03-17T04:21:52.834Z,6.33
2018-03-17T04:23:55.421Z,5.00
2018-03-17T04:25:58.874Z,5.10
2018-03-17T04:28:01.527Z,5.90
2018-03-17T04:30:04.110Z,5.80
2018-03-17T04:32:06.735Z,5.77
2018-03-17T04:34:09.321Z,5.30
2018-03-17T04:36:12.983Z,5.63
2018-03-17T04:38:15.559Z,5.87
2018-03-17T04:40:18.210Z,6.23
2018-03-17T04:42:20.815Z,6.30
2018-03-17T04:44:23.397Z,6.27
2018-03-17T04:46:26.742Z,6.00
2018-03-17T04:48:29.345Z,6.80
2018-03-17T04:50:31.930Z,5.73
2018-03-17T04:52:34.542Z,5.30
2018-03-17T04:54:37.136Z,7.03
2018-03-17T04:56:39.727Z,6.10
2018-03-17T04:58:42.327Z,6.43
2018-03-17T05:00:44.921Z,7.03
2018-03-17T05:02:48.278Z,7.20
2018-03-17T05:04:50.945Z,6.23
2018-03-17T05:06:53.521Z,7.30
2018-03-17T05:08:56.136Z,7.23
2018-03-17T05:10:59.514Z,7.40
2018-03-17T05:13:02.117Z,6.37
2018-03-17T05:15:04.720Z,6.70
2018-03-17T05:17:07.314Z,7.70
2018-03-17T05:19:09.919Z,8.67
2018-03-17T05:21:12.537Z,14.67
2018-03-17T05:23:15.151Z,15.53
2018-03-17T05:25:17.815Z,16.97
2018-03-17T05:27:20.514Z,17.97
2018-03-17T05:29:23.114Z,15.93
2018-03-17T05:31:25.742Z,17.87
2018-03-17T05:33:29.110Z,17.30
2018-03-17T05:35:31.746Z,17.20
2018-03-17T05:37:34.328Z,17.07
2018-03-17T05:39:37.668Z,16.90
2018-03-17T05:41:40.277Z,15.83
2018-03-17T05:43:43.622Z,17.90
2018-03-17T05:45:46.206Z,17.67
2018-03-17T05:47:48.825Z,18.03
2018-03-17T05:49:52.180Z,18.40
2018-03-17T05:51:54.781Z,17.97
2018-03-17T05:53:57.381Z,17.17
2018-03-17T05:55:59.976Z,17.40
2018-03-17T05:58:02.602Z,18.23
2018-03-17T06:00:05.203Z,19.43
2018-03-17T06:02:07.795Z,20.97
2018-03-17T06:04:10.397Z,20.93
2018-03-17T06:06:12.978Z,20.23
2018-03-17T06:08:17.114Z,19.37
2018-03-17T06:10:20.492Z,19.93
2018-03-17T06:12:23.359Z,19.73
2018-03-17T06:14:26.284Z,20.37
2018-03-17T06:16:29.082Z,20.73
2018-03-17T06:18:31.673Z,21.20
2018-03-17T06:20:35.043Z,21.13
2018-03-17T06:22:37.625Z,21.00
2018-03-17T06:24:40.229Z,20.63
2018-03-17T06:26:42.826Z,21.50
2018-03-17T06:28:45.451Z,21.27
2018-03-17T06:30:48.116Z,22.97
2018-03-17T06:32:50.679Z,22.57
2018-03-17T06:34:53.285Z,21.67
2018-03-17T06:36:55.935Z,21.80
2018-03-17T06:38:58.533Z,21.80
2018-03-17T06:41:01.141Z,23.00
2018-03-17T06:43:03.799Z,23.40
2018-03-17T06:45:06.454Z,22.80
2018-03-17T06:47:09.034Z,23.50
2018-03-17T06:49:11.637Z,22.60
2018-03-17T06:51:14.250Z,25.30
2018-03-17T06:53:16.877Z,21.67
2018-03-17T06:55:19.503Z,23.57
2018-03-17T06:57:22.109Z,25.13
2018-03-17T06:59:24.697Z,26.20
2018-03-17T07:01:27.312Z,26.53
2018-03-17T07:03:30.808Z,23.03
2018-03-17T07:05:34.158Z,25.50
2018-03-17T07:07:36.762Z,24.90
2018-03-17T07:09:40.139Z,24.57
2018-03-17T07:11:42.771Z,24.23
2018-03-17T07:13:45.380Z,23.97
2018-03-17T07:15:48.274Z,22.83
2018-03-17T07:17:50.922Z,23.00
2018-03-17T07:19:53.543Z,21.80
2018-03-17T07:21:56.905Z,20.30
2018-03-17T07:23:59.570Z,20.87
2018-03-17T07:26:02.195Z,20.67
2018-03-17T07:28:05.554Z,20.77
2018-03-17T07:30:08.219Z,22.07
2018-03-17T07:32:10.812Z,19.73
2018-03-17T07:34:13.423Z,24.00
2018-03-17T07:36:16.011Z,20.80
2018-03-17T07:38:18.598Z,20.27
2018-03-17T07:40:21.973Z,20.17
2018-03-17T07:42:24.673Z,19.40
2018-03-17T07:44:27.541Z,20.30
2018-03-17T07:46:30.163Z,20.60
2018-03-17T07:48:32.767Z,20.13
2018-03-17T07:50:35.381Z,19.87
2018-03-17T07:52:38.019Z,21.47
2018-03-17T07:54:41.925Z,21.87
2018-03-17T07:56:44.561Z,20.23
2018-03-17T07:58:47.246Z,20.73
2018-03-17T08:00:50.602Z,19.50
2018-03-17T08:02:53.238Z,21.20
2018-03-17T08:04:55.856Z,21.17
2018-03-17T08:06:58.477Z,19.37
2018-03-17T08:09:01.846Z,21.00
2018-03-17T08:11:04.529Z,20.87
2018-03-17T08:13:07.156Z,20.93
2018-03-17T08:15:09.774Z,21.23
2018-03-17T08:17:12.749Z,20.50
2018-03-17T08:19:15.410Z,22.37
2018-03-17T08:21:18.014Z,21.50
2018-03-17T08:23:20.634Z,22.33
2018-03-17T08:25:23.316Z,22.17
2018-03-17T08:27:25.937Z,21.13
2018-03-17T08:29:28.522Z,21.37
2018-03-17T08:31:31.886Z,21.47
2018-03-17T08:33:35.369Z,21.97
2018-03-17T08:35:38.734Z,21.03
2018-03-17T08:37:41.333Z,21.53
2018-03-17T08:39:43.953Z,22.33
2018-03-17T08:41:47.400Z,21.53
2018-03-17T08:43:50.062Z,21.67
2018-03-17T08:45:52.743Z,21.60
2018-03-17T08:47:55.378Z,21.47
2018-03-17T08:52:06.849Z,24.03
2018-03-17T08:54:11.543Z,21.87
2018-03-17T08:56:14.665Z,23.43
2018-03-17T08:58:18.046Z,23.97
2018-03-17T09:00:20.681Z,20.43
2018-03-17T09:02:23.273Z,19.50
2018-03-17T09:04:25.940Z,19.77
2018-03-17T09:06:28.586Z,19.77
2018-03-17T09:08:31.183Z,21.37
2018-03-17T09:10:33.783Z,21.13
2018-03-17T09:12:36.378Z,21.57
2018-03-17T09:14:39.083Z,19.20
2018-03-17T09:16:43.315Z,19.83
2018-03-17T09:18:45.934Z,19.30
2018-03-17T09:20:48.574Z,19.67
2018-03-17T09:22:51.176Z,18.17
2018-03-17T09:24:53.756Z,18.87
2018-03-17T09:26:56.381Z,19.50
2018-03-17T09:28:58.979Z,19.03
2018-03-17T09:31:01.620Z,18.23
2018-03-17T09:33:04.229Z,20.90
2018-03-17T09:35:06.869Z,22.03
2018-03-17T09:37:09.479Z,21.83
2018-03-17T09:39:12.867Z,22.17
2018-03-17T09:41:15.456Z,26.03
2018-03-17T09:43:18.076Z,23.13
2018-03-17T09:45:21.437Z,24.67
2018-03-17T09:47:24.042Z,24.90
2018-03-17T09:49:27.462Z,25.33
2018-03-17T09:51:30.472Z,24.57
2018-03-17T09:53:33.078Z,24.63
2018-03-17T09:55:35.707Z,25.30
2018-03-17T09:57:38.330Z,25.77
2018-03-17T09:59:41.719Z,27.83
2018-03-17T10:01:45.091Z,26.40
2018-03-17T10:03:48.916Z,25.73
2018-03-17T10:05:52.310Z,24.73
2018-03-17T10:07:55.653Z,26.23
2018-03-17T10:09:58.303Z,26.73
2018-03-17T10:12:00.921Z,27.63
2018-03-17T10:14:04.330Z,27.07
2018-03-17T10:16:06.957Z,27.73
2018-03-17T10:18:09.598Z,26.00
2018-03-17T10:20:13.005Z,25.57
2018-03-17T10:22:15.612Z,27.30
2018-03-17T10:24:18.216Z,26.87
2018-03-17T10:26:20.808Z,27.27
2018-03-17T10:28:24.230Z,27.97
2018-03-17T10:30:26.825Z,28.93
2018-03-17T10:32:29.423Z,27.17
2018-03-17T10:34:32.041Z,28.17
2018-03-17T10:36:35.401Z,29.20
2018-03-17T10:38:38.030Z,27.17
2018-03-17T10:40:40.618Z,28.27
2018-03-17T10:42:43.212Z,28.10
2018-03-17T10:44:45.836Z,26.27
2018-03-17T10:46:48.421Z,27.23
2018-03-17T10:48:51.014Z,29.80
2018-03-17T10:50:53.637Z,28.87
2018-03-17T10:52:57.059Z,28.77
2018-03-17T10:54:59.669Z,27.90
2018-03-17T10:57:02.270Z,28.97
2018-03-17T10:59:04.869Z,29.17
2018-03-17T11:01:15.616Z,27.50
2018-03-17T11:03:18.976Z,29.30
2018-03-17T11:05:22.366Z,29.80
2018-03-17T11:07:25.006Z,28.17
2018-03-17T11:09:27.605Z,29.17
2018-03-17T11:11:31.065Z,27.00
2018-03-17T11:13:34.018Z,30.63
2018-03-17T11:15:36.607Z,31.77
2018-03-17T11:17:39.974Z,31.47
2018-03-17T11:19:42.581Z,29.87
2018-03-17T11:21:45.961Z,31.70
2018-03-17T11:23:49.343Z,29.67
2018-03-17T11:25:52.132Z,29.37
2018-03-17T11:27:54.746Z,27.80
2018-03-17T11:29:57.380Z,30.20
2018-03-17T11:32:00.022Z,30.90
2018-03-17T11:34:02.653Z,29.23
2018-03-17T11:36:05.262Z,29.20
2018-03-17T11:38:07.851Z,28.50
2018-03-17T11:40:10.458Z,31.00
2018-03-17T11:42:13.919Z,32.03
2018-03-17T11:44:16.571Z,27.17
2018-03-17T11:46:19.203Z,28.20
2018-03-17T11:48:23.781Z,28.47
2018-03-17T11:50:27.239Z,27.93
2018-03-17T11:52:29.963Z,28.50
2018-03-17T11:54:32.925Z,29.80
2018-03-17T11:56:35.525Z,27.73
2018-03-17T11:58:38.177Z,28.37
2018-03-17T12:00:43.553Z,30.10
2018-03-17T12:02:46.141Z,31.30
2018-03-17T12:04:49.532Z,29.23
2018-03-17T12:06:52.915Z,27.63
2018-03-17T12:08:56.305Z,29.60
2018-03-17T12:10:58.926Z,25.70
2018-03-17T12:13:01.539Z,26.47
2018-03-17T12:15:04.909Z,26.80
2018-03-17T12:17:07.534Z,27.50
2018-03-17T12:19:10.914Z,26.90
2018-03-17T12:21:13.890Z,27.80
2018-03-17T12:23:16.509Z,26.67
2018-03-17T12:25:19.131Z,25.57
2018-03-17T12:27:21.736Z,26.30
2018-03-17T12:29:25.127Z,25.70
2018-03-17T12:31:28.521Z,24.87
2018-03-17T12:33:31.895Z,27.10
2018-03-17T12:35:35.494Z,27.43
2018-03-17T12:37:38.126Z,26.87
2018-03-17T12:39:40.799Z,25.70
2018-03-17T12:41:43.395Z,28.60
2018-03-17T12:43:46.024Z,28.83
2018-03-17T12:45:49.394Z,26.13
2018-03-17T12:47:53.107Z,27.80
2018-03-17T12:49:56.476Z,27.37
2018-03-17T12:51:59.116Z,27.10
2018-03-17T12:54:01.848Z,27.83
2018-03-17T12:56:05.217Z,25.97
2018-03-17T12:58:07.825Z,27.47
2018-03-17T13:00:11.185Z,26.20
2018-03-17T13:02:13.787Z,26.37
2018-03-17T13:04:17.185Z,26.67
2018-03-17T13:06:19.795Z,25.70
2018-03-17T13:08:22.407Z,25.83
2018-03-17T13:10:25.067Z,25.90
2018-03-17T13:12:27.654Z,27.50
2018-03-17T13:14:30.272Z,25.23
2018-03-17T13:16:32.956Z,25.17
2018-03-17T13:18:35.659Z,25.93
2018-03-17T13:20:38.269Z,26.63
2018-03-17T13:22:53.419Z,27.33
2018-03-17T13:24:56.035Z,27.10
2018-03-17T13:27:10.280Z,26.90
2018-03-17T13:29:12.887Z,27.40
2018-03-17T13:31:15.526Z,24.47
2018-03-17T13:33:18.914Z,26.50
2018-03-17T13:35:22.307Z,24.87
2018-03-17T13:37:37.682Z,24.23
2018-03-17T13:39:41.075Z,27.67
2018-03-17T13:41:44.472Z,23.03
2018-03-17T13:43:47.077Z,25.10
2018-03-17T13:45:49.719Z,25.13
2018-03-17T13:47:53.101Z,26.33
2018-03-17T13:49:56.491Z,23.70
2018-03-17T13:51:59.904Z,24.00
2018-03-17T13:54:02.500Z,22.43
2018-03-17T13:56:05.112Z,22.00
2018-03-17T13:58:07.702Z,23.13
2018-03-17T14:00:11.074Z,23.23
2018-03-17T14:02:13.689Z,23.97
2018-03-17T14:04:17.074Z,24.60
2018-03-17T14:06:20.526Z,24.30
2018-03-17T14:08:23.137Z,24.43
2018-03-17T14:10:26.514Z,23.57
2018-03-17T14:12:29.144Z,23.00
2018-03-17T14:14:31.750Z,24.03
2018-03-17T14:16:34.347Z,23.87
2018-03-17T14:18:37.726Z,24.70
2018-03-17T14:20:40.331Z,24.73
2018-03-17T14:25:28.650Z,26.37
2018-03-17T14:27:31.277Z,25.90
2018-03-17T14:29:34.691Z,23.17
2018-03-17T14:31:37.327Z,23.97
2018-03-17T14:33:39.953Z,23.07
2018-03-17T14:35:42.630Z,22.77
2018-03-17T14:37:45.235Z,22.30
2018-03-17T14:39:47.901Z,22.37
2018-03-17T14:41:50.503Z,21.00
2018-03-17T14:43:53.148Z,22.73
2018-03-17T14:45:56.535Z,22.53
2018-03-17T14:47:59.271Z,23.07
2018-03-17T14:50:02.034Z,20.97
2018-03-17T14:52:04.676Z,21.47
2018-03-17T14:54:07.324Z,21.80
2018-03-17T14:56:09.976Z,21.17
2018-03-17T14:58:13.368Z,22.40
2018-03-17T15:00:16.778Z,22.03
2018-03-17T15:02:19.423Z,22.37
2018-03-17T15:04:22.149Z,23.23
2018-03-17T15:06:24.756Z,23.07
2018-03-17T15:08:27.414Z,22.57
2018-03-17T15:10:30.088Z,23.30
2018-03-17T15:12:32.738Z,22.97
2018-03-17T15:14:35.454Z,24.43
2018-03-17T15:16:38.071Z,22.07
2018-03-17T15:18:40.679Z,20.53
2018-03-17T15:20:43.310Z,20.10
2018-03-17T15:22:46.726Z,21.63
2018-03-17T15:24:49.385Z,20.30
2018-03-17T15:26:52.827Z,21.43
2018-03-17T15:28:56.966Z,22.17
2018-03-17T15:30:59.610Z,21.00
2018-03-17T15:33:02.258Z,21.03
2018-03-17T15:35:04.878Z,20.73
2018-03-17T15:37:07.517Z,21.10
2018-03-17T15:39:10.902Z,18.90
2018-03-17T15:41:13.562Z,19.27
2018-03-17T15:43:16.959Z,20.07
2018-03-17T15:45:20.382Z,20.80
2018-03-17T15:47:23.019Z,20.43
2018-03-17T15:49:26.414Z,21.27
2018-03-17T15:51:29.827Z,20.60
2018-03-17T15:53:32.693Z,19.50
2018-03-17T15:55:36.134Z,20.93
2018-03-17T15:57:38.763Z,20.03
2018-03-17T15:59:42.174Z,22.00
2018-03-17T16:01:44.834Z,22.87
2018-03-17T16:03:47.462Z,20.70
2018-03-17T16:05:50.131Z,20.37
2018-03-17T16:07:52.848Z,21.30
2018-03-17T16:09:56.299Z,20.03
2018-03-17T16:11:58.941Z,21.40
2018-03-17T16:14:01.617Z,20.07
2018-03-17T16:16:04.309Z,19.97
2018-03-17T16:18:06.921Z,20.50
2018-03-17T16:20:09.548Z,22.00
2018-03-17T16:22:13.022Z,21.57
2018-03-17T16:24:16.451Z,21.30
2018-03-17T16:26:19.099Z,23.90
2018-03-17T16:28:22.587Z,21.80
2018-03-17T16:30:26.052Z,20.10
2018-03-17T16:32:28.688Z,19.73
2018-03-17T16:34:31.309Z,19.57
2018-03-17T16:36:34.003Z,19.87
2018-03-17T16:38:37.406Z,19.50
2018-03-17T16:40:41.468Z,19.00
2018-03-17T16:42:44.940Z,17.90
2018-03-17T16:44:47.607Z,19.50
2018-03-17T16:46:50.306Z,18.10
2018-03-17T16:48:52.934Z,19.37
2018-03-17T16:50:56.401Z,20.30
2018-03-17T16:52:59.832Z,18.27
2018-03-17T16:55:02.501Z,18.37
2018-03-17T16:57:05.961Z,18.60
2018-03-17T16:59:08.606Z,18.23
2018-03-17T17:01:11.249Z,18.23
2018-03-17T17:03:14.817Z,18.67
2018-03-17T17:05:17.464Z,18.97
2018-03-17T17:07:20.254Z,18.57
2018-03-17T17:09:22.913Z,18.30
2018-03-17T17:11:25.580Z,19.03
2018-03-17T17:13:28.191Z,18.50
2018-03-17T17:15:30.999Z,20.27
2018-03-17T17:17:45.685Z,18.67
2018-03-17T17:19:48.949Z,18.47
2018-03-17T17:21:52.398Z,21.90
2018-03-17T17:23:55.087Z,22.80
2018-03-17T17:25:57.770Z,19.43
2018-03-17T17:28:00.423Z,19.07
2018-03-17T17:30:03.068Z,18.53
2018-03-17T17:32:05.744Z,18.43
2018-03-17T17:34:08.398Z,19.20
2018-03-17T17:36:11.825Z,20.20
2018-03-17T17:38:14.618Z,18.70
2018-03-17T17:40:17.263Z,19.07
2018-03-17T17:42:19.903Z,20.13
2018-03-17T17:44:22.543Z,20.37
2018-03-17T17:46:25.159Z,19.40
2018-03-17T17:48:28.691Z,19.83
2018-03-17T17:50:31.369Z,19.47
2018-03-17T17:52:34.005Z,18.43
2018-03-17T17:54:36.654Z,21.37
2018-03-17T17:56:39.430Z,21.40
2018-03-17T17:58:42.323Z,34.03
2018-03-17T18:00:46.028Z,43.17
2018-03-17T18:02:48.730Z,43.80
2018-03-17T18:04:52.133Z,19.53
2018-03-17T18:06:55.534Z,20.97
2018-03-17T18:08:58.501Z,21.27
2018-03-17T18:11:01.819Z,20.03
2018-03-17T18:13:04.538Z,18.60
2018-03-17T18:15:07.307Z,20.47
2018-03-17T18:17:09.985Z,19.50
2018-03-17T18:19:12.647Z,20.83
2018-03-17T18:21:15.366Z,18.67
2018-03-17T18:23:18.904Z,20.67
2018-03-17T18:25:21.665Z,26.03
2018-03-17T18:27:25.075Z,24.27
2018-03-17T18:29:27.737Z,26.03
2018-03-17T18:31:30.418Z,41.00
2018-03-17T18:33:33.060Z,87.53
2018-03-17T18:35:35.783Z,121.30
2018-03-17T18:37:38.509Z,41.07
2018-03-17T18:39:41.235Z,32.97
2018-03-17T18:41:44.086Z,23.90
2018-03-17T18:43:46.687Z,23.90
2018-03-17T18:45:49.361Z,24.07
2018-03-17T18:47:52.011Z,26.00
2018-03-17T18:49:55.457Z,23.97
2018-03-17T18:51:58.174Z,23.90
2018-03-17T18:54:00.831Z,24.63
2018-03-17T18:56:03.491Z,24.50
2018-03-17T18:58:06.169Z,24.63
2018-03-17T19:00:08.818Z,24.23
2018-03-17T19:02:11.583Z,22.47
2018-03-17T19:04:15.026Z,23.90
2018-03-17T19:06:36.293Z,23.53
2018-03-17T19:08:40.298Z,26.23
2018-03-17T19:10:43.073Z,24.47
2018-03-17T19:12:46.505Z,23.20
2018-03-17T19:14:49.334Z,23.63
2018-03-17T19:16:53.029Z,24.23
2018-03-17T19:18:56.687Z,25.17
2018-03-17T19:20:59.568Z,25.50
2018-03-17T19:23:15.325Z,25.50
2018-03-17T19:25:19.212Z,22.77
2018-03-17T19:27:21.894Z,24.20
2018-03-17T19:29:24.550Z,22.27
2018-03-17T19:31:27.975Z,23.40
2018-03-17T19:33:30.634Z,22.93
2018-03-17T19:35:33.415Z,23.87
2018-03-17T19:37:36.071Z,22.97
2018-03-17T19:39:38.732Z,23.57
2018-03-17T19:41:42.250Z,22.80
2018-03-17T19:43:45.755Z,23.83
2018-03-17T19:45:49.230Z,25.50
2018-03-17T19:47:51.937Z,24.90
2018-03-17T19:49:55.375Z,25.33
2018-03-17T19:51:58.034Z,26.20
2018-03-17T19:54:00.717Z,27.83
2018-03-17T19:56:03.363Z,24.20
2018-03-17T19:58:06.087Z,23.33
2018-03-17T20:00:08.899Z,26.30
2018-03-17T20:02:11.567Z,23.80
2018-03-17T20:04:14.264Z,23.37
2018-03-17T20:06:16.945Z,24.50
2018-03-17T20:08:19.653Z,23.20
2018-03-17T20:10:22.351Z,23.33
2018-03-17T20:12:25.071Z,23.93
2018-03-17T20:14:27.819Z,22.50
2018-03-17T20:16:30.483Z,23.37
2018-03-17T20:18:33.193Z,21.40
2018-03-17T20:20:36.729Z,21.63
2018-03-17T20:22:39.423Z,20.73
2018-03-17T20:24:42.143Z,22.50
2018-03-17T20:26:44.938Z,22.83
2018-03-17T20:28:47.757Z,23.70
2018-03-17T20:30:50.476Z,29.57
2018-03-17T20:32:54.047Z,21.73
2018-03-17T20:34:56.692Z,22.97
2018-03-17T20:36:59.415Z,20.77
2018-03-17T20:39:02.140Z,22.43
2018-03-17T20:41:04.790Z,21.37
2018-03-17T20:43:07.586Z,20.93
2018-03-17T20:45:10.227Z,20.60
2018-03-17T20:47:13.039Z,21.97
2018-03-17T20:49:15.780Z,20.83
2018-03-17T20:51:18.535Z,21.67
2018-03-17T20:53:21.318Z,20.37
2018-03-17T20:55:24.023Z,20.83
2018-03-17T20:57:27.481Z,23.10
2018-03-17T20:59:30.151Z,20.50
2018-03-17T21:01:32.808Z,23.20
2018-03-17T21:03:37.284Z,20.67
2018-03-17T21:05:41.240Z,19.10
2018-03-17T21:07:43.955Z,20.47
2018-03-17T21:09:47.277Z,19.03
2018-03-17T21:11:50.060Z,20.13
2018-03-17T21:13:52.816Z,21.10
2018-03-17T21:15:55.558Z,20.80
2018-03-17T21:17:58.269Z,21.43
2018-03-17T21:20:01.135Z,20.93
2018-03-17T21:22:04.119Z,20.43
2018-03-17T21:24:06.784Z,20.90
2018-03-17T21:26:10.980Z,22.03
2018-03-17T21:28:13.787Z,22.17
2018-03-17T21:30:16.768Z,22.77
2018-03-17T21:32:20.269Z,21.70
2018-03-17T21:34:23.105Z,20.40
2018-03-17T21:36:25.883Z,22.27
2018-03-17T21:38:28.739Z,22.03
2018-03-17T21:40:32.179Z,21.07
2018-03-17T21:42:34.976Z,22.30
2018-03-17T21:44:37.644Z,22.30
2018-03-17T21:46:40.382Z,21.03
2018-03-17T21:48:43.146Z,22.37
2018-03-17T21:50:46.665Z,22.43
2018-03-17T21:52:49.351Z,21.53
2018-03-17T21:54:52.134Z,23.07
2018-03-17T21:56:54.847Z,24.17
2018-03-17T21:58:57.710Z,22.17
2018-03-17T22:01:00.518Z,23.30
2018-03-17T22:03:03.954Z,25.83
2018-03-17T22:05:06.601Z,21.83
2018-03-17T22:07:09.330Z,23.27
2018-03-17T22:09:12.017Z,25.47
2018-03-17T22:11:14.712Z,21.80
2018-03-17T22:13:17.386Z,21.23
2018-03-17T22:15:20.022Z,23.27
2018-03-17T22:17:22.747Z,22.93
2018-03-17T22:19:25.543Z,21.40
2018-03-17T22:21:28.290Z,21.37
2018-03-17T22:23:30.921Z,20.57
2018-03-17T22:25:33.577Z,19.53
2018-03-17T22:27:36.269Z,20.27
2018-03-17T22:29:38.939Z,21.70
2018-03-17T22:31:41.847Z,21.40
2018-03-17T22:33:44.562Z,21.47
2018-03-17T22:35:48.280Z,21.10
2018-03-17T22:37:51.035Z,21.43
2018-03-17T22:39:54.636Z,20.20
2018-03-17T22:41:57.277Z,22.40
2018-03-17T22:44:00.017Z,22.60
2018-03-17T22:46:03.648Z,21.40
2018-03-17T22:48:06.371Z,22.13
2018-03-17T22:50:09.844Z,20.93
2018-03-17T22:52:12.507Z,19.47
2018-03-17T22:54:15.412Z,22.83
2018-03-17T22:56:18.159Z,21.37
2018-03-17T22:58:20.946Z,22.40
2018-03-17T23:00:23.676Z,21.37
2018-03-17T23:02:26.384Z,20.83
2018-03-17T23:04:29.321Z,20.23
2018-03-17T23:06:32.120Z,21.77
2018-03-17T23:08:34.827Z,21.77
2018-03-17T23:10:37.616Z,21.07
2018-03-17T23:12:40.282Z,21.60
2018-03-17T23:14:43.049Z,20.53
2018-03-17T23:16:46.030Z,20.63
2018-03-17T23:18:48.772Z,20.37
2018-03-17T23:20:51.491Z,21.00
2018-03-17T23:22:54.295Z,19.73
2018-03-17T23:24:57.034Z,20.03
2018-03-17T23:26:59.729Z,20.63
2018-03-17T23:29:02.438Z,21.93
2018-03-17T23:31:05.146Z,21.53
2018-03-17T23:33:07.855Z,19.43
2018-03-17T23:35:10.635Z,22.13
2018-03-17T23:37:13.409Z,22.13
2018-03-17T23:39:17.086Z,20.40
2018-03-17T23:41:19.928Z,20.73
2018-03-17T23:43:23.487Z,21.33
2018-03-17T23:45:26.233Z,21.23
2018-03-17T23:47:28.902Z,21.73
2018-03-17T23:49:31.697Z,20.37
2018-03-17T23:51:34.506Z,21.27
2018-03-17T23:53:37.180Z,20.60
2018-03-17T23:55:40.064Z,20.50
2018-03-17T23:57:42.842Z,20.17
2018-03-17T23:59:45.687Z,20.63
